LIME/BGY METAR and TAF weather

Enter ICAO airport designator
Station Type Date Time Source
LIME METAR 2019/02/16 17:50 UTC NOAA

LIME 161750Z 05002KT 5000 BR NSC 09/03 Q1029 NOSIG


Station Type Date Time Source
LIME Decoded METAR 2019/02/16 17:50 UTC NOAA

Bergamo / Orio Al Serio, Italy (LIME) 45-40N 009-42E 237M
Feb 16, 2019 - 12:50 PM EST / 2019.02.16 1750 UTC
Wind: from the NE (050 degrees) at 2 MPH (2 KT):0
Visibility: 3 mile(s):0
Weather: mist
Temperature: 48 F (9 C)
Dew Point: 37 F (3 C)
Relative Humidity: 66%
Pressure (altimeter): 30.39 in. Hg (1029 hPa)
ob: LIME 161750Z 05002KT 5000 BR NSC 09/03 Q1029 NOSIG
cycle: 18

Station Type Date Time Source
LIME TAF 2019/02/16 18:22 UTC NOAA

TAF LIME 161700Z 1618/1718 VRB05KT 7000 NSC
TEMPO 1618/1621 4000 BR
TEMPO 1714/1718 4000 BR


Example: see airport list